DeLand, FL

10:39 AM EDT on July 05, 2015 (GMT -0400)
Glenwood Hammock | | Change Station
CLOSE
Current Station
Personal Weather Station
Location: DeLand, FL
Elevation: 111 ft
Nearby Weather Stations

Elev 111 ft 29.06 °N, 81.36 °W | Updated 9 minutes ago

Clear
Clear
82.6 °F
Feels Like 92 °F
N
1.0
Wind Variable Wind from WSW
Gusts 2.0 mph

Today
High -- | Low -- °F
--% Chance of Precip.
Yesterday
High -- | Low -- °F
Precip. -- in
6:31 AM 8:27 PM
Waning Gibbous, 84% visible
Pressure 30.18 in
Visibility 10.0 miles
Clouds Clear
Heat Index 92 °F
Dew Point 78 °F
Humidity 87%
Rainfall 0.00 in
Snow Depth Not available.
UV 7 out of 12
Pollen 1.80 out of 12
Air Quality Not available.
Flu Activity Not available.
METAR KSFB 051353Z 18004KT 10SM CLR 29/24 A3018 RMK AO2 SLP219 T02890244

More Conditions Fewer Conditions

Pressure 30.18 in
Visibility 10.0 miles
Clouds Clear
Heat Index 92 °F
Dew Point 78 °F
Humidity 87%
Rainfall 0.00 in
Snow Depth Not available.
UV 7 out of 12
Pollen 1.80 out of 12
Air Quality Not available.
Flu Activity Not available.
METAR KSFB 051353Z 18004KT 10SM CLR 29/24 A3018 RMK AO2 SLP219 T02890244

More Conditions Fewer Conditions

Nowcast | as of 9:40 am EDT on July 5, 2015

Scattered showers and storms developing Treasure Coast to Okeechobee Some mid level support will combine with strong surface heating and the developing East Coast sea breeze boundary to generate scattered showers and storms earlier than previous days...between the Treasure Coast and Okeechobee...from mid morning through early afternoon. The primary threats will be dangerous lightning strikes and heavy rain as the cells will be slow moving...generally toward the north at 5 to 10 mph. Localized flooding of low lying and poor drainage areas will be possible along or just inland from the Treasure Coast of Martin... Saint Lucie and Indian River counties. Additional details...including graphics are available online at: http://www.Srh.NOAA.Gov/mlb/blog.Php

×

10-Day Weather Forecast

×

Almanac

Astronomy

Jul. 05, 2015 Rise Set
Actual Time
Civil Twilight
Nautical Twilight
Astronomical Twilight
Moon
Length of Visible Light
Length of Day
Tomorrow will be .
, % of the Moon is Illuminated

Today's Extremes

State Highs State Lows

Community

WunderPhotos

Upload Photos

1,835,275 photos uploaded!

WunderBlogs® & News

Nearby

Air Quality

  Air Quality AQ Index Pollutant
Not available.

Snow Depth

Station Depth Elevation

Earthquake Activity

City Distance Mag. Time & Date
Minimum magnitude displayed is 2.5.

Coastal Water Temperatures

Place Temperature

Stations

Nearby Weather Stations

Station Location Temp. Windchill Dew Point Humidity Wind Precip. Elev Updated Type